This is the latest recevied weather packets stored in our database for station/object W1CAT. If no packets are shown the sender has not sent any weather packets the latest 10 day(s).
| Time | Temp. | Humidity | Pressure | Rain* | Wind** | Luminosity | Snow |
|---|---|---|---|---|---|---|---|
| 1777687058 | 5.56° C | 61% | - | 0 mm | - | - | - |
| 1777686753 | 5° C | 62% | - | 0 mm | - | - | - |
| 1777686451 | 5° C | 62% | - | 0 mm | - | - | - |
| 1777686148 | 5° C | 63% | - | 0 mm | - | - | - |
| 1777685844 | 5.56° C | 61% | - | 0 mm | - | - | - |
| 1777685539 | 5.56° C | 61% | - | 0 mm | - | - | - |
| 1777685237 | 5.56° C | 61% | - | 0 mm | - | - | - |
| 1777684935 | 6.11° C | 59% | - | 0 mm | - | - | - |
| 1777684631 | 6.67° C | 58% | - | 0 mm | - | - | - |
| 1777684327 | 7.22° C | 52% | - | 0 mm | - | - | - |
| 1777684025 | 8.33° C | 46% | - | 0 mm | - | - | - |
| 1777683721 | 8.33° C | 46% | - | 0 mm | - | - | - |
| 1777683419 | 8.33° C | 43% | - | 0 mm | - | - | - |
| 1777683116 | 8.33° C | 45% | - | 0 mm | - | - | - |
| 1777682812 | 8.33° C | 46% | - | 0 mm | - | - | - |
| 1777682509 | 8.33° C | 43% | - | 0 mm | - | - | - |
| 1777682207 | 8.89° C | 44% | - | 0 mm | - | - | - |
| 1777681904 | 8.89° C | 43% | - | 0 mm | - | - | - |
| 1777681600 | 8.89° C | 42% | - | 0 mm | - | - | - |
| 1777681297 | 9.44° C | 41% | - | 0 mm | - | - | - |
| 1777680995 | 10° C | 40% | - | 0 mm | - | - | - |
| 1777680692 | 10° C | 39% | - | 0 mm | - | - | - |
| 1777680390 | 10.56° C | 37% | - | 0 mm | - | - | - |
| 1777680087 | 12.22° C | 34% | - | 0 mm | - | - | - |
| 1777679783 | 13.33° C | 32% | - | 0 mm | - | - | - |
* Rain latest hour (hover to see other rain measurements)
** Current wind speed in m/s (hover to see current wind gust speed)